Time;durP1;ratioP1;P1;durP2;ratioP2;P2;SDS_P1;SDS_P2;PMS_P1;PMS_P2;Temp;Humidity;BMP_temperature;BMP_pressure;BME280_temperature;BME280_humidity;BME280_pressure;Samples;Min_cycle;Max_cycle;Signal;HPM_P1;HPM_P2
2022/09/12 00:00:07;;;;;;;26.80;14.60;;;;;;;11.46;100.00;101620.34;5029873;28;20363;-86
2022/09/12 00:02:33;;;;;;;22.33;15.07;;;;;;;11.48;100.00;101621.72;5031496;28;20491;-86
2022/09/12 00:04:59;;;;;;;21.80;14.63;;;;;;;11.42;100.00;101614.63;5029908;28;20034;-86
2022/09/12 00:07:24;;;;;;;22.73;14.25;;;;;;;11.45;100.00;101624.88;5031441;28;20443;-86
2022/09/12 00:09:49;;;;;;;23.13;14.57;;;;;;;11.39;100.00;101617.00;5032764;28;20037;-86
2022/09/12 00:12:15;;;;;;;23.47;14.80;;;;;;;11.36;100.00;101613.75;5050767;28;20388;-86
2022/09/12 00:14:40;;;;;;;20.37;14.33;;;;;;;11.28;100.00;101610.66;5051189;28;20491;-86
2022/09/12 00:17:05;;;;;;;21.37;14.20;;;;;;;11.29;100.00;101612.28;5050917;28;20025;-85
2022/09/12 00:19:30;;;;;;;21.93;14.67;;;;;;;11.18;100.00;101595.19;5050400;28;20044;-86
2022/09/12 00:21:56;;;;;;;21.77;14.37;;;;;;;11.24;100.00;101609.50;5037912;28;20397;-86
2022/09/12 00:24:21;;;;;;;21.83;14.48;;;;;;;11.18;100.00;101605.94;5050855;28;20021;-86
2022/09/12 00:26:47;;;;;;;23.63;14.67;;;;;;;11.06;100.00;101595.25;5050838;28;20108;-86
2022/09/12 00:29:16;;;;;;;21.17;13.85;;;;;;;11.14;100.00;101612.81;5050859;28;20021;-86
2022/09/12 00:31:42;;;;;;;22.40;13.87;;;;;;;11.14;100.00;101607.47;5050459;28;20682;-86
2022/09/12 00:34:08;;;;;;;21.90;14.67;;;;;;;11.11;100.00;101602.59;5050556;28;20337;-86
2022/09/12 00:36:34;;;;;;;21.40;14.20;;;;;;;11.09;100.00;101600.16;5050725;28;20626;-87
2022/09/12 00:38:59;;;;;;;23.42;14.43;;;;;;;10.90;100.00;101570.06;5032797;28;20473;-86
2022/09/12 00:41:28;;;;;;;21.70;13.67;;;;;;;11.04;100.00;101595.53;5030111;28;20167;-86
2022/09/12 00:43:57;;;;;;;22.58;14.85;;;;;;;10.98;100.00;101601.84;5030868;28;20072;-86
2022/09/12 00:46:43;;;;;;;23.92;13.35;;;;;;;10.96;100.00;101597.78;5030904;28;20020;-86
2022/09/12 00:49:40;;;;;;;22.70;15.07;;;;;;;10.89;100.00;101595.25;5030790;28;20026;-87
2022/09/12 00:52:20;;;;;;;19.13;13.63;;;;;;;10.93;100.00;101596.41;5030190;28;20045;-86
2022/09/12 00:55:05;;;;;;;22.00;14.67;;;;;;;10.90;100.00;101589.63;5029214;28;20288;-86
2022/09/12 00:57:44;;;;;;;20.52;14.18;;;;;;;10.86;100.00;101582.31;5030855;28;20103;-86
2022/09/12 01:00:15;;;;;;;21.60;14.25;;;;;;;10.84;100.00;101589.78;5029956;28;20025;-86
2022/09/12 01:02:42;;;;;;;22.45;14.40;;;;;;;10.74;100.00;101575.16;5030850;28;20022;-86
2022/09/12 01:05:09;;;;;;;22.20;13.90;;;;;;;10.75;100.00;101574.13;5041127;28;20116;-86
2022/09/12 01:07:36;;;;;;;22.95;15.00;;;;;;;10.75;100.00;101575.97;5050764;28;20067;-86
2022/09/12 01:10:04;;;;;;;21.98;14.90;;;;;;;10.73;100.00;101576.22;5049393;28;20116;-87
2022/09/12 01:12:30;;;;;;;22.27;14.35;;;;;;;10.69;100.00;101580.44;5029015;28;20083;-86
2022/09/12 01:20:44;;;;;;;24.17;15.97;;;;;;;10.65;100.00;101568.56;5468456;22;20325;-87
2022/09/12 01:23:25;;;;;;;21.13;14.20;;;;;;;10.59;100.00;101573.00;5010300;28;20030;-87
2022/09/12 01:25:59;;;;;;;26.05;14.77;;;;;;;10.57;100.00;101563.59;5025308;28;20034;-86
2022/09/12 01:28:47;;;;;;;22.80;14.65;;;;;;;10.56;100.00;101572.69;5022461;28;20029;-86
2022/09/12 01:31:46;;;;;;;24.25;14.57;;;;;;;10.52;100.00;101564.28;5029730;28;20117;-86
2022/09/12 01:34:26;;;;;;;23.90;14.18;;;;;;;10.38;100.00;101558.41;5018405;28;20037;-86
2022/09/12 01:37:01;;;;;;;22.95;14.38;;;;;;;10.44;100.00;101554.75;5010197;28;20030;-86
2022/09/12 01:39:37;;;;;;;22.52;14.68;;;;;;;10.47;100.00;101556.16;5010049;28;20496;-86
2022/09/12 01:42:25;;;;;;;22.25;14.38;;;;;;;10.49;100.00;101545.19;5009716;28;20026;-86
2022/09/12 01:45:05;;;;;;;22.67;15.03;;;;;;;10.42;100.00;101535.44;5008454;28;20038;-86
2022/09/12 01:47:39;;;;;;;24.77;15.53;;;;;;;10.42;100.00;101543.47;5007889;28;20301;-86
2022/09/12 01:50:08;;;;;;;26.10;15.80;;;;;;;10.48;100.00;101552.44;5009352;28;20026;-86
2022/09/12 01:52:41;;;;;;;29.55;17.27;;;;;;;10.49;100.00;101546.03;5009113;28;20057;-86
2022/09/12 01:55:13;;;;;;;27.58;16.55;;;;;;;10.52;100.00;101540.16;5009845;28;20022;-87
2022/09/12 01:57:45;;;;;;;34.85;16.58;;;;;;;10.50;100.00;101538.78;5010401;28;20533;-86
2022/09/12 02:00:12;;;;;;;25.80;15.70;;;;;;;10.50;100.00;101541.47;5008804;28;20088;-86
2022/09/12 02:02:50;;;;;;;24.73;14.88;;;;;;;10.49;100.00;101535.31;5020696;28;20029;-86
2022/09/12 02:05:26;;;;;;;26.15;15.98;;;;;;;10.42;100.00;101519.34;5030305;28;20018;-86
2022/09/12 02:08:07;;;;;;;24.83;15.68;;;;;;;10.35;100.00;101516.00;5029700;28;20034;-86
2022/09/12 02:10:42;;;;;;;24.60;15.63;;;;;;;10.28;100.00;101515.31;5029702;28;20105;-86
2022/09/12 02:13:26;;;;;;;30.07;15.80;;;;;;;10.35;100.00;101524.03;5029501;28;20279;-87
2022/09/12 02:15:57;;;;;;;29.73;16.52;;;;;;;10.31;100.00;101517.53;5026397;28;20038;-86
2022/09/12 02:18:25;;;;;;;26.45;16.15;;;;;;;10.22;100.00;101513.59;5032346;28;20033;-86
2022/09/12 02:20:50;;;;;;;26.00;15.77;;;;;;;10.25;100.00;101518.47;5036841;28;20029;-87
2022/09/12 02:23:30;;;;;;;25.63;16.33;;;;;;;10.23;100.00;101516.03;5031771;28;20378;-87
2022/09/12 02:26:02;;;;;;;26.40;16.20;;;;;;;10.19;100.00;101508.72;5039124;28;20109;-86
2022/09/12 02:28:34;;;;;;;26.80;16.35;;;;;;;10.22;100.00;101521.66;5032373;28;20078;-87
2022/09/12 02:31:04;;;;;;;27.55;16.52;;;;;;;10.17;100.00;101511.63;5038596;28;20045;-86
2022/09/12 02:33:43;;;;;;;27.25;16.55;;;;;;;10.19;100.00;101519.44;5018939;28;20026;-86
2022/09/12 02:36:31;;;;;;;28.23;16.88;;;;;;;10.06;100.00;101515.16;5016549;28;20033;-85
2022/09/12 02:38:57;;;;;;;30.60;16.27;;;;;;;10.04;100.00;101526.13;5018844;28;20049;-86
2022/09/12 02:41:22;;;;;;;26.07;16.37;;;;;;;10.04;100.00;101518.09;5017456;28;20029;-86
2022/09/12 02:43:50;;;;;;;28.63;16.03;;;;;;;10.05;100.00;101525.03;5018885;28;20041;-86
2022/09/12 02:46:21;;;;;;;27.40;16.50;;;;;;;10.02;100.00;101519.34;5021448;28;20338;-87
2022/09/12 02:48:46;;;;;;;27.25;17.02;;;;;;;9.96;100.00;101513.88;5020074;28;20086;-86
2022/09/12 02:51:12;;;;;;;27.70;17.00;;;;;;;9.96;100.00;101510.41;5029297;28;20108;-86
2022/09/12 02:53:38;;;;;;;29.25;17.00;;;;;;;9.97;100.00;101499.44;5033575;28;20393;-86
2022/09/12 02:56:09;;;;;;;32.85;17.35;;;;;;;10.06;100.00;101515.97;5033840;28;20030;-86
2022/09/12 02:58:35;;;;;;;28.17;16.63;;;;;;;10.08;100.00;101519.22;5033681;28;20104;-86
2022/09/12 03:01:22;;;;;;;30.25;16.75;;;;;;;10.11;100.00;101499.19;5032146;28;20060;-86
2022/09/12 03:03:56;;;;;;;29.30;16.98;;;;;;;10.10;100.00;101506.41;5030058;28;20091;-86
2022/09/12 03:06:38;;;;;;;30.25;17.42;;;;;;;10.09;100.00;101502.09;5033576;28;20033;-87
2022/09/12 03:09:37;;;;;;;30.52;16.65;;;;;;;10.08;100.00;101502.34;5031495;28;20112;-86
2022/09/12 03:12:14;;;;;;;29.70;16.87;;;;;;;10.10;100.00;101493.03;5032799;28;20120;-86
2022/09/12 03:15:18;;;;;;;28.40;17.00;;;;;;;10.06;100.00;101489.19;5032752;28;20272;-86
2022/09/12 03:17:52;;;;;;;33.03;18.05;;;;;;;10.11;100.00;101499.19;5031445;28;20572;-86
2022/09/12 03:20:43;;;;;;;29.63;17.80;;;;;;;10.11;100.00;101489.28;5032217;28;20044;-86
2022/09/12 03:23:15;;;;;;;30.98;17.00;;;;;;;9.98;100.00;101466.28;5032589;28;20041;-86
2022/09/12 03:25:47;;;;;;;31.58;17.45;;;;;;;10.10;100.00;101484.19;5030589;28;20029;-87
2022/09/12 03:28:18;;;;;;;33.33;17.85;;;;;;;10.13;100.00;101486.38;5032420;28;20041;-86
2022/09/12 03:30:47;;;;;;;30.90;17.40;;;;;;;10.11;100.00;101485.81;5032289;28;20057;-86
2022/09/12 03:33:15;;;;;;;31.52;17.75;;;;;;;10.09;100.00;101488.72;5021013;28;20429;-86
2022/09/12 03:35:41;;;;;;;31.17;17.70;;;;;;;10.08;100.00;101484.41;5026286;28;20033;-86
2022/09/12 03:38:07;;;;;;;33.10;18.00;;;;;;;10.14;100.00;101485.31;5032399;28;20547;-86
2022/09/12 03:40:35;;;;;;;31.67;16.63;;;;;;;10.09;100.00;101483.34;5032773;28;20025;-87
2022/09/12 03:43:02;;;;;;;29.57;16.77;;;;;;;10.05;100.00;101476.84;5032039;28;20488;-87
2022/09/12 03:45:27;;;;;;;30.10;16.23;;;;;;;10.11;100.00;101481.25;5033100;28;20279;-86
2022/09/12 03:47:52;;;;;;;29.48;16.23;;;;;;;10.08;100.00;101476.38;5030288;28;20025;-86
2022/09/12 03:50:18;;;;;;;30.57;16.60;;;;;;;10.17;100.00;101489.41;5032140;28;20511;-86
2022/09/12 03:52:43;;;;;;;30.07;17.10;;;;;;;10.17;100.00;101482.16;5022373;28;20025;-86
2022/09/12 03:55:08;;;;;;;32.47;17.07;;;;;;;10.09;100.00;101471.84;5011741;28;20029;-86
2022/09/12 03:57:34;;;;;;;30.70;16.87;;;;;;;10.20;100.00;101478.22;5032384;28;20027;-86
2022/09/12 04:00:00;;;;;;;27.37;16.33;;;;;;;10.20;100.00;101475.53;5033360;28;20319;-86
2022/09/12 04:02:26;;;;;;;27.80;16.58;;;;;;;10.20;100.00;101470.97;5037905;28;20048;-86
2022/09/12 04:04:52;;;;;;;28.73;16.13;;;;;;;10.17;100.00;101465.28;5037187;28;20029;-87
2022/09/12 04:07:17;;;;;;;26.50;15.30;;;;;;;10.23;100.00;101475.03;5031994;28;20033;-87
2022/09/12 04:09:42;;;;;;;26.63;15.53;;;;;;;10.13;100.00;101452.38;5023039;28;20107;-86
2022/09/12 04:12:08;;;;;;;29.60;15.87;;;;;;;10.22;100.00;101468.88;5023457;28;20050;-87
2022/09/12 04:14:33;;;;;;;28.83;16.67;;;;;;;10.13;100.00;101457.72;5020389;28;20006;-87
2022/09/12 04:16:59;;;;;;;28.50;16.43;;;;;;;10.12;100.00;101456.09;5012512;28;20129;-86
2022/09/12 04:19:25;;;;;;;32.53;16.97;;;;;;;10.17;100.00;101457.25;5013344;28;20726;-86
2022/09/12 04:21:51;;;;;;;27.13;15.90;;;;;;;10.20;100.00;101462.16;5030458;28;20037;-86
2022/09/12 04:24:16;;;;;;;29.93;17.10;;;;;;;10.22;100.00;101465.41;5031656;28;20030;-86
2022/09/12 04:26:42;;;;;;;27.67;16.63;;;;;;;10.19;100.00;101453.28;5030539;28;20297;-86
2022/09/12 04:29:11;;;;;;;30.90;16.87;;;;;;;10.24;100.00;101458.75;5030904;28;20039;-87
2022/09/12 04:31:37;;;;;;;29.60;17.38;;;;;;;10.25;100.00;101459.53;5031134;28;20079;-86
2022/09/12 04:34:02;;;;;;;33.08;18.48;;;;;;;10.25;100.00;101463.03;5029517;28;20038;-86
2022/09/12 04:36:28;;;;;;;35.17;18.63;;;;;;;10.19;100.00;101439.09;5019258;28;20030;-87
2022/09/12 04:38:54;;;;;;;33.13;17.75;;;;;;;10.28;100.00;101449.19;5011106;28;20053;-86
2022/09/12 04:41:29;;;;;;;29.87;17.73;;;;;;;10.23;100.00;101446.41;5010607;28;20496;-86
2022/09/12 04:43:58;;;;;;;31.50;18.17;;;;;;;10.29;100.00;101445.44;5011171;28;20277;-86
2022/09/12 04:46:24;;;;;;;33.83;18.42;;;;;;;10.32;100.00;101443.34;5011254;28;20113;-86
2022/09/12 04:48:50;;;;;;;30.65;18.00;;;;;;;10.32;100.00;101444.13;5012053;28;20026;-86
2022/09/12 04:51:20;;;;;;;34.28;19.23;;;;;;;10.32;100.00;101444.13;5028338;28;20028;-86
2022/09/12 04:53:51;;;;;;;33.42;19.48;;;;;;;10.21;100.00;101424.41;5030943;28;20025;-86
2022/09/12 04:56:17;;;;;;;36.28;19.58;;;;;;;10.33;100.00;101445.78;5031053;28;20038;-86
2022/09/12 04:58:43;;;;;;;35.13;19.60;;;;;;;10.30;100.00;101435.53;5030718;28;20022;-87
2022/09/12 05:01:11;;;;;;;39.73;21.13;;;;;;;10.32;100.00;101441.47;5020276;28;20299;-86
2022/09/12 05:03:38;;;;;;;35.05;19.40;;;;;;;10.30;100.00;101435.53;5030559;28;20075;-86
2022/09/12 05:06:06;;;;;;;39.08;19.95;;;;;;;10.41;100.00;101448.06;5028447;28;20025;-87
2022/09/12 05:08:34;;;;;;;40.08;19.60;;;;;;;10.41;100.00;101453.44;5029081;28;20025;-87
2022/09/12 05:11:04;;;;;;;35.67;19.40;;;;;;;10.37;100.00;101433.53;5027664;28;20052;-87
2022/09/12 05:13:30;;;;;;;36.72;20.52;;;;;;;10.45;100.00;101451.91;5030536;28;20093;-86
2022/09/12 05:16:00;;;;;;;38.17;20.23;;;;;;;10.44;100.00;101444.91;5030053;28;20045;-87
2022/09/12 05:18:25;;;;;;;36.17;20.13;;;;;;;10.53;100.00;101449.88;5030261;28;20021;-86
2022/09/12 05:20:52;;;;;;;36.90;19.90;;;;;;;10.52;100.00;101445.59;5019888;28;20025;-86
2022/09/12 05:23:17;;;;;;;38.00;20.15;;;;;;;10.64;100.00;101457.03;5009169;28;20030;-87
2022/09/12 05:25:51;;;;;;;41.80;20.57;;;;;;;10.69;100.00;101457.13;5023134;28;20041;-86
2022/09/12 05:28:17;;;;;;;37.17;20.90;;;;;;;10.70;100.00;101455.25;5030330;28;20144;-86
2022/09/12 05:30:42;;;;;;;37.13;19.45;;;;;;;10.73;100.00;101455.59;5029890;28;20057;-87
2022/09/12 05:33:07;;;;;;;41.10;20.13;;;;;;;10.71;100.00;101454.19;5029424;28;20028;-85
2022/09/12 05:35:32;;;;;;;38.27;20.07;;;;;;;10.73;100.00;101446.72;5030083;28;20053;-85
2022/09/12 05:37:58;;;;;;;38.20;20.70;;;;;;;10.75;100.00;101450.81;5026737;28;20409;-87
2022/09/12 05:40:23;;;;;;;38.77;20.03;;;;;;;10.74;100.00;101449.19;5019995;28;20026;-85
2022/09/12 05:42:48;;;;;;;39.13;21.50;;;;;;;10.79;100.00;101452.97;5009808;28;20038;-85
2022/09/12 05:45:14;;;;;;;40.42;20.83;;;;;;;10.85;100.00;101454.69;5009369;28;20046;-87
2022/09/12 05:47:39;;;;;;;36.10;20.80;;;;;;;10.91;100.00;101456.41;5010348;28;20018;-86
2022/09/12 05:50:09;;;;;;;37.00;20.73;;;;;;;10.95;100.00;101457.53;5008229;28;20036;-87
2022/09/12 05:52:35;;;;;;;41.15;22.00;;;;;;;10.98;100.00;101451.66;5029059;28;20519;-86
2022/09/12 05:55:00;;;;;;;42.47;23.48;;;;;;;11.11;100.00;101465.81;5024572;28;20033;-86
2022/09/12 05:57:25;;;;;;;40.13;22.27;;;;;;;11.14;100.00;101462.63;5022611;28;20108;-86
2022/09/12 05:59:51;;;;;;;40.03;22.30;;;;;;;11.17;100.00;101464.81;5018513;28;20030;-86
2022/09/12 06:02:17;;;;;;;41.08;21.45;;;;;;;11.28;100.00;101471.97;5016613;28;20041;-86
2022/09/12 06:04:42;;;;;;;44.23;23.40;;;;;;;11.31;100.00;101470.66;5013590;28;20030;-86
2022/09/12 06:07:07;;;;;;;43.20;23.53;;;;;;;11.38;100.00;101475.84;5013584;28;20493;-87
2022/09/12 06:09:33;;;;;;;41.30;22.80;;;;;;;11.30;100.00;101461.81;5010214;28;20026;-86
2022/09/12 06:11:58;;;;;;;41.97;23.23;;;;;;;11.41;100.00;101470.78;5008503;28;20100;-86
2022/09/12 06:14:23;;;;;;;36.25;21.45;;;;;;;11.44;100.00;101466.81;5027492;28;20040;-86
2022/09/12 06:16:49;;;;;;;40.47;22.43;;;;;;;11.54;100.00;101479.56;5029334;28;20496;-86
2022/09/12 06:19:20;;;;;;;39.37;22.20;;;;;;;11.56;100.00;101482.81;5017531;28;20037;-85
2022/09/12 06:21:48;;;;;;;44.05;24.63;;;;;;;11.55;100.00;101481.19;5014809;28;20029;-85
2022/09/12 06:24:14;;;;;;;43.10;23.77;;;;;;;11.55;100.00;101479.28;5027664;28;20066;-87
2022/09/12 06:26:39;;;;;;;42.30;23.48;;;;;;;11.51;100.00;101481.69;5009289;28;20022;-86
2022/09/12 06:29:04;;;;;;;43.93;23.33;;;;;;;11.49;100.00;101480.31;5013385;28;20053;-87
2022/09/12 06:31:35;;;;;;;43.50;23.10;;;;;;;11.37;100.00;101472.38;5012883;28;20029;-87
2022/09/12 06:34:03;;;;;;;39.95;22.52;;;;;;;11.31;100.00;101455.38;5012702;28;20022;-86
2022/09/12 06:36:31;;;;;;;47.20;23.98;;;;;;;11.38;100.00;101465.94;5015373;28;20042;-86
2022/09/12 06:39:02;;;;;;;48.92;25.13;;;;;;;11.42;100.00;101468.94;5012782;28;20604;-84
2022/09/12 06:41:30;;;;;;;47.58;24.77;;;;;;;11.44;100.00;101472.97;5012315;28;20148;-84
2022/09/12 06:43:56;;;;;;;46.20;25.00;;;;;;;11.44;100.00;101464.94;5014144;28;20041;-84
2022/09/12 06:46:22;;;;;;;53.72;28.38;;;;;;;11.52;100.00;101467.19;5012884;28;20165;-84
2022/09/12 06:48:50;;;;;;;56.77;28.77;;;;;;;11.53;100.00;101462.63;5012733;28;20112;-84
2022/09/12 06:51:17;;;;;;;57.40;27.92;;;;;;;11.70;100.00;101470.63;5013123;28;20029;-85
2022/09/12 06:53:44;;;;;;;53.35;27.80;;;;;;;11.79;100.00;101466.44;5027523;28;20065;-84
2022/09/12 06:56:13;;;;;;;56.33;28.88;;;;;;;11.86;100.00;101455.53;5032878;28;20033;-85
2022/09/12 06:58:39;;;;;;;62.80;29.73;;;;;;;11.93;100.00;101445.41;5030785;28;20032;-84
2022/09/12 07:01:06;;;;;;;59.92;30.45;;;;;;;12.17;100.00;101465.81;5025106;28;20393;-84
2022/09/12 07:03:33;;;;;;;56.60;29.70;;;;;;;12.27;100.00;101466.72;5013040;28;20026;-84
2022/09/12 07:06:12;;;;;;;62.15;30.10;;;;;;;12.44;100.00;101463.13;5012836;28;20053;-87
2022/09/12 07:08:39;;;;;;;54.63;27.70;;;;;;;12.51;100.00;101462.91;5012833;28;20183;-86
2022/09/12 07:11:15;;;;;;;52.33;28.30;;;;;;;12.65;100.00;101463.31;5024315;28;20299;-86
2022/09/12 07:13:43;;;;;;;48.92;26.85;;;;;;;12.67;100.00;101467.38;5032377;28;20017;-86
2022/09/12 07:16:09;;;;;;;45.67;26.25;;;;;;;12.65;100.00;101458.75;5028201;28;20041;-85
2022/09/12 07:18:36;;;;;;;42.13;25.00;;;;;;;12.71;100.00;101467.66;5011915;28;20029;-86
2022/09/12 07:21:04;;;;;;;43.90;24.80;;;;;;;12.76;100.00;101465.03;5011505;28;20539;-84
2022/09/12 07:23:30;;;;;;;47.95;26.17;;;;;;;12.78;100.00;101460.19;5012481;28;20697;-85
2022/09/12 07:25:57;;;;;;;48.23;25.93;;;;;;;12.82;100.00;101452.44;5014796;28;20092;-84
2022/09/12 07:28:24;;;;;;;44.30;26.58;;;;;;;12.81;100.00;101451.59;5021997;28;20075;-83
2022/09/12 07:30:52;;;;;;;52.10;27.30;;;;;;;12.95;100.00;101461.94;5029278;28;20496;-84
2022/09/12 07:33:19;;;;;;;50.05;27.48;;;;;;;13.06;100.00;101449.34;5028288;28;20049;-84
2022/09/12 07:35:45;;;;;;;46.88;27.48;;;;;;;13.18;100.00;101453.47;5501216;22;20079;-85
2022/09/12 07:38:10;;;;;;;46.27;26.57;;;;;;;13.30;100.00;101455.16;5029998;28;20033;-84
2022/09/12 07:40:35;;;;;;;48.13;26.40;;;;;;;13.42;100.00;101469.25;5030666;28;20036;-84
2022/09/12 07:43:01;;;;;;;44.45;25.65;;;;;;;13.45;100.00;101457.97;5031007;28;20457;-84
2022/09/12 07:45:26;;;;;;;47.30;27.33;;;;;;;13.52;100.00;101460.41;5032390;28;20073;-84
2022/09/12 07:47:54;;;;;;;43.37;26.53;;;;;;;13.65;100.00;101466.38;5029294;28;20091;-84
2022/09/12 07:50:20;;;;;;;46.70;25.80;;;;;;;13.68;100.00;101466.69;5031156;28;20064;-84
2022/09/12 07:52:45;;;;;;;42.07;24.57;;;;;;;13.80;100.00;101471.84;5031068;28;20404;-85
2022/09/12 07:55:11;;;;;;;43.57;23.33;;;;;;;13.90;100.00;101476.44;5031566;28;20381;-85
2022/09/12 07:57:36;;;;;;;41.53;25.53;;;;;;;14.00;100.00;101463.03;5031717;28;20714;-85
2022/09/12 08:00:04;;;;;;;41.33;23.80;;;;;;;14.19;100.00;101476.00;5031066;28;20497;-84
2022/09/12 08:02:29;;;;;;;38.42;23.35;;;;;;;14.30;100.00;101471.44;5031896;28;20029;-84
2022/09/12 08:04:55;;;;;;;37.63;22.47;;;;;;;14.40;100.00;101476.84;5144304;22;20180;-83
2022/09/12 08:07:20;;;;;;;37.37;22.80;;;;;;;14.51;100.00;101465.00;5031451;28;20056;-84
2022/09/12 08:09:46;;;;;;;33.60;20.90;;;;;;;14.73;100.00;101472.03;5030430;28;20032;-84
2022/09/12 08:12:11;;;;;;;37.83;21.33;;;;;;;14.90;100.00;101473.63;5031429;28;20026;-84
2022/09/12 08:14:36;;;;;;;33.28;20.65;;;;;;;15.00;100.00;101473.66;5031403;28;20041;-84
2022/09/12 08:17:02;;;;;;;33.20;20.20;;;;;;;15.12;100.00;101476.06;5030944;28;20037;-84
2022/09/12 08:19:27;;;;;;;31.33;19.93;;;;;;;15.20;100.00;101475.50;5029550;28;20116;-84
2022/09/12 08:21:52;;;;;;;29.67;19.93;;;;;;;15.22;100.00;101465.22;5030562;28;20461;-84
2022/09/12 08:24:18;;;;;;;30.27;19.57;;;;;;;15.32;100.00;101467.09;5030375;28;20473;-84
2022/09/12 08:26:43;;;;;;;28.40;18.60;;;;;;;15.47;100.00;101471.66;5012553;28;20032;-84
2022/09/12 08:29:08;;;;;;;27.75;18.65;;;;;;;15.63;100.00;101475.09;5023761;28;20037;-84
2022/09/12 08:31:35;;;;;;;29.27;17.43;;;;;;;15.72;100.00;101483.44;5026589;28;20444;-84
2022/09/12 08:34:01;;;;;;;25.48;18.35;;;;;;;15.79;100.00;101483.94;5012042;28;20112;-84
2022/09/12 08:36:28;;;;;;;30.33;18.10;;;;;;;15.83;100.00;101463.41;5028374;28;20021;-84
2022/09/12 08:38:56;;;;;;;24.93;17.37;;;;;;;15.94;100.00;101485.00;5029864;28;20292;-84
2022/09/12 08:41:31;;;;;;;25.42;16.15;;;;;;;15.95;100.00;101486.59;5028952;28;20021;-84
2022/09/12 08:44:34;;;;;;;27.05;17.48;;;;;;;16.01;100.00;101496.31;5011473;28;20033;-84
2022/09/12 08:47:16;;;;;;;26.55;17.08;;;;;;;16.08;100.00;101491.41;5030017;28;20064;-84
2022/09/12 08:50:09;;;;;;;25.27;16.23;;;;;;;16.21;100.00;101489.97;5029633;28;20428;-84
2022/09/12 08:52:52;;;;;;;24.42;15.35;;;;;;;16.33;100.00;101492.34;5030585;28;20285;-84
2022/09/12 08:55:38;;;;;;;22.08;15.98;;;;;;;16.38;100.00;101488.78;4998080;28;20037;-84
2022/09/12 08:58:12;;;;;;;23.30;14.65;;;;;;;16.42;100.00;101477.16;5016176;28;20025;-84
2022/09/12 09:01:25;;;;;;;20.60;13.73;;;;;;;16.61;100.00;101481.88;5042408;28;20032;-84
2022/09/12 09:04:16;;;;;;;24.57;14.13;;;;;;;16.72;100.00;101475.28;4993778;28;20034;-84
2022/09/12 09:06:48;;;;;;;23.23;14.57;;;;;;;16.80;100.00;101477.38;5029342;28;20314;-84
2022/09/12 09:09:38;;;;;;;19.13;14.57;;;;;;;16.97;100.00;101472.66;5029648;28;20510;-84
2022/09/12 09:12:21;;;;;;;20.08;13.88;;;;;;;16.99;100.00;101476.69;5028956;28;20025;-84
2022/09/12 09:15:04;;;;;;;17.52;13.43;;;;;;;17.02;100.00;101462.59;5029502;28;20041;-84
2022/09/12 09:17:50;;;;;;;20.73;12.68;;;;;;;17.27;100.00;101468.84;5016690;28;20053;-84
2022/09/12 09:20:21;;;;;;;18.70;11.57;;;;;;;17.48;100.00;101476.75;5040659;28;20708;-85
2022/09/12 09:23:16;;;;;;;14.82;11.15;;;;;;;17.59;100.00;101466.59;5030209;28;20025;-84
2022/09/12 09:25:50;;;;;;;15.80;9.88;;;;;;;17.70;97.84;101458.03;5011733;28;20041;-84
2022/09/12 09:28:38;;;;;;;14.02;10.63;;;;;;;17.81;97.98;101466.03;5026191;28;20025;-84
2022/09/12 09:31:10;;;;;;;15.50;10.80;;;;;;;17.94;96.71;101459.88;5029176;28;20021;-84
2022/09/12 09:33:36;;;;;;;12.67;10.60;;;;;;;18.16;95.07;101467.47;5028251;28;20378;-84
2022/09/12 09:36:21;;;;;;;15.52;11.02;;;;;;;18.16;95.64;101453.09;5029512;28;20051;-84
2022/09/12 09:38:55;;;;;;;15.25;10.20;;;;;;;18.22;94.87;101461.97;5026785;28;20087;-84
2022/09/12 09:41:26;;;;;;;14.18;10.07;;;;;;;18.38;94.29;101460.63;5028731;28;20036;-84
2022/09/12 09:43:51;;;;;;;12.05;8.93;;;;;;;18.55;91.64;101465.53;5028393;28;20033;-85
2022/09/12 09:46:17;;;;;;;14.03;10.00;;;;;;;18.69;90.99;101449.28;5029579;28;20030;-84
2022/09/12 09:48:52;;;;;;;12.45;8.75;;;;;;;18.86;89.57;101454.13;5011735;28;20025;-84
2022/09/12 09:51:24;;;;;;;11.02;8.38;;;;;;;18.96;88.25;101444.25;5029024;28;20121;-85
2022/09/12 09:54:02;;;;;;;12.03;7.80;;;;;;;19.01;88.16;101442.22;5015256;28;20070;-84
2022/09/12 09:56:36;;;;;;;8.20;7.40;;;;;;;19.20;84.06;101452.19;5032654;28;20304;-84
2022/09/12 09:59:14;;;;;;;8.85;6.95;;;;;;;19.35;84.81;101435.59;5032984;28;20038;-84
2022/09/12 10:01:48;;;;;;;8.85;7.00;;;;;;;19.44;82.70;101435.69;5034402;28;20026;-84
2022/09/12 10:04:22;;;;;;;9.93;7.00;;;;;;;19.41;84.98;101433.56;5014667;28;20041;-85
2022/09/12 10:06:51;;;;;;;10.48;7.57;;;;;;;19.46;83.04;101428.03;5009575;28;20038;-85
2022/09/12 10:09:23;;;;;;;8.40;6.05;;;;;;;19.51;80.88;101425.22;5021874;28;20076;-84
2022/09/12 10:11:51;;;;;;;6.85;5.60;;;;;;;19.63;83.09;101421.16;5032948;28;20029;-86
2022/09/12 10:14:40;;;;;;;10.77;7.13;;;;;;;19.65;80.50;101416.22;5032882;28;20504;-85
2022/09/12 10:17:27;;;;;;;8.10;6.03;;;;;;;19.81;82.30;101422.16;5015973;28;20053;-84
2022/09/12 10:19:53;;;;;;;11.30;6.10;;;;;;;20.00;79.41;101415.75;5032618;28;20029;-85
2022/09/12 10:22:21;;;;;;;7.73;5.63;;;;;;;20.03;75.95;101407.78;5019923;28;20284;-84
2022/09/12 10:24:51;;;;;;;8.25;6.13;;;;;;;20.03;75.88;101406.97;5033659;28;20327;-85
2022/09/12 10:27:22;;;;;;;8.73;5.60;;;;;;;20.06;75.34;101406.38;5037400;28;20080;-85
2022/09/12 10:30:07;;;;;;;5.43;4.85;;;;;;;20.16;78.48;101402.59;5032199;28;20036;-84
2022/09/12 10:32:37;;;;;;;6.40;5.15;;;;;;;20.16;75.51;101389.00;5037407;28;20029;-84
2022/09/12 10:35:24;;;;;;;6.85;5.07;;;;;;;20.23;75.72;101398.34;5032852;28;20473;-84
2022/09/12 10:38:01;;;;;;;7.65;5.53;;;;;;;20.34;76.44;101393.44;5032286;28;20483;-85
2022/09/12 10:40:42;;;;;;;5.93;5.23;;;;;;;20.45;76.44;101385.03;5033985;28;20065;-84
2022/09/12 10:43:26;;;;;;;8.87;5.97;;;;;;;20.52;76.47;101391.63;5035784;28;20303;-84
2022/09/12 10:45:56;;;;;;;6.88;6.18;;;;;;;20.68;75.33;101391.25;5033453;28;20481;-85
2022/09/12 10:48:32;;;;;;;6.95;5.95;;;;;;;20.83;74.79;101379.97;5015083;28;20026;-85
2022/09/12 10:50:58;;;;;;;7.93;6.30;;;;;;;20.87;73.34;101359.16;5030322;28;20041;-84
2022/09/12 10:53:39;;;;;;;8.43;5.05;;;;;;;21.07;73.43;101375.22;5031114;28;20028;-84
2022/09/12 10:56:18;;;;;;;7.40;5.53;;;;;;;21.09;72.99;101371.06;5017827;28;20040;-85
2022/09/12 10:59:24;;;;;;;5.35;4.40;;;;;;;21.26;73.54;101373.03;5029822;28;20385;-85
2022/09/12 11:01:59;;;;;;;5.57;4.65;;;;;;;21.35;70.40;101364.09;5009770;28;20037;-85
2022/09/12 11:05:11;;;;;;;6.00;4.75;;;;;;;21.49;72.02;101362.00;5040259;28;20032;-85
2022/09/12 11:07:42;;;;;;;4.43;4.07;;;;;;;21.62;68.02;101363.00;5048166;28;20025;-85
2022/09/12 11:10:25;;;;;;;5.13;4.50;;;;;;;21.66;68.26;101363.97;5047953;28;20519;-85
2022/09/12 11:13:12;;;;;;;4.93;4.22;;;;;;;21.78;69.17;101355.13;5029069;28;20029;-85
2022/09/12 11:15:59;;;;;;;6.38;4.70;;;;;;;21.78;68.42;101350.50;5031678;28;20171;-85
2022/09/12 11:18:43;;;;;;;6.38;4.85;;;;;;;21.96;68.90;101357.84;5031761;28;20465;-85
2022/09/12 11:21:23;;;;;;;12.57;5.03;;;;;;;22.02;66.93;101359.28;5031068;28;20469;-85
2022/09/12 11:24:24;;;;;;;7.45;6.03;;;;;;;22.09;66.80;101354.94;5031686;28;20041;-86
2022/09/12 11:27:01;;;;;;;6.95;5.70;;;;;;;22.16;67.61;101349.00;5031470;28;20199;-86
2022/09/12 11:29:38;;;;;;;6.15;5.22;;;;;;;22.31;66.50;101338.69;5032094;28;20030;-85